Time;durP1;ratioP1;P1;durP2;ratioP2;P2;SDS_P1;SDS_P2;PMS_P1;PMS_P2;Temp;Humidity;BMP_temperature;BMP_pressure;BME280_temperature;BME280_humidity;BME280_pressure;Samples;Min_cycle;Max_cycle;Signal;HPM_P1;HPM_P2
2022/08/07 00:00:53;;;;;;;25.10;22.52;;;17.40;99.90;;;;;;5052626;28;20025;-83
2022/08/07 00:03:19;;;;;;;24.42;21.83;;;17.40;99.90;;;;;;5052410;28;20032;-83
2022/08/07 00:05:44;;;;;;;23.08;20.25;;;17.30;99.90;;;;;;5052830;28;20354;-83
2022/08/07 00:08:10;;;;;;;22.25;19.77;;;17.30;99.90;;;;;;5053102;28;20021;-83
2022/08/07 00:10:36;;;;;;;20.35;17.55;;;17.20;99.90;;;;;;5052640;28;20108;-83
2022/08/07 00:13:04;;;;;;;22.15;18.50;;;17.20;99.90;;;;;;5052658;28;20031;-83
2022/08/07 00:15:31;;;;;;;25.05;17.77;;;17.20;99.90;;;;;;5052721;28;20104;-83
2022/08/07 00:17:57;;;;;;;19.50;16.27;;;17.20;99.90;;;;;;5052373;28;20033;-83
2022/08/07 00:20:23;;;;;;;18.65;15.30;;;17.10;99.90;;;;;;5052877;28;20048;-83
2022/08/07 00:22:48;;;;;;;18.25;15.75;;;17.10;99.90;;;;;;5050276;28;20033;-78
2022/08/07 00:25:14;;;;;;;17.60;14.88;;;17.10;99.90;;;;;;5050027;28;20078;-78
2022/08/07 00:27:40;;;;;;;17.45;14.77;;;17.10;99.90;;;;;;5050339;28;20025;-78
2022/08/07 00:30:06;;;;;;;18.83;15.20;;;17.10;99.90;;;;;;5050357;28;20032;-78
2022/08/07 00:32:31;;;;;;;15.63;13.05;;;17.10;99.90;;;;;;5050035;28;20025;-78
2022/08/07 00:34:57;;;;;;;17.02;13.13;;;17.10;99.90;;;;;;5031804;28;20047;-78
2022/08/07 00:37:24;;;;;;;16.50;12.30;;;17.10;99.90;;;;;;5050129;28;20036;-78
2022/08/07 00:39:52;;;;;;;11.82;10.63;;;17.00;99.90;;;;;;5050466;28;20025;-78
2022/08/07 00:42:19;;;;;;;13.90;10.75;;;17.00;99.90;;;;;;5054162;28;20021;-78
2022/08/07 00:44:44;;;;;;;13.77;10.25;;;17.00;99.90;;;;;;5054335;28;20518;-78
2022/08/07 00:47:10;;;;;;;12.65;11.13;;;17.00;99.90;;;;;;5054398;28;20075;-78
2022/08/07 00:49:36;;;;;;;12.20;10.63;;;17.00;99.90;;;;;;5053899;28;20025;-78
2022/08/07 00:52:05;;;;;;;14.40;9.80;;;17.00;99.90;;;;;;5053907;28;20486;-78
2022/08/07 00:54:31;;;;;;;12.38;9.13;;;17.00;99.90;;;;;;5053787;28;20039;-78
2022/08/07 00:56:59;;;;;;;12.05;9.15;;;17.00;99.90;;;;;;5053816;28;20057;-78
2022/08/07 00:59:25;;;;;;;12.77;8.40;;;16.90;99.90;;;;;;5053667;28;20033;-78
2022/08/07 01:01:51;;;;;;;13.77;8.50;;;16.90;99.90;;;;;;5053791;28;20098;-77
2022/08/07 01:04:17;;;;;;;11.15;7.90;;;16.90;99.90;;;;;;5053740;28;20799;-78
2022/08/07 01:06:44;;;;;;;9.00;7.70;;;16.90;99.90;;;;;;5053799;28;20108;-78
2022/08/07 01:09:10;;;;;;;10.52;7.80;;;16.90;99.90;;;;;;5053974;28;20172;-78
2022/08/07 01:11:36;;;;;;;8.52;6.88;;;16.80;99.90;;;;;;5052871;28;20718;-78
2022/08/07 01:14:03;;;;;;;8.75;6.80;;;16.80;99.90;;;;;;5042028;28;20083;-78
2022/08/07 01:16:29;;;;;;;8.88;6.85;;;16.90;99.90;;;;;;5053683;28;20123;-78
2022/08/07 01:18:55;;;;;;;9.77;6.30;;;16.80;99.90;;;;;;5053903;28;20033;-78
2022/08/07 01:21:23;;;;;;;9.45;5.85;;;16.80;99.90;;;;;;5053388;28;20045;-78
2022/08/07 01:23:50;;;;;;;8.80;5.97;;;16.80;99.90;;;;;;5053410;28;20040;-78
2022/08/07 01:26:19;;;;;;;7.88;6.00;;;16.80;99.90;;;;;;5053113;28;20033;-78
2022/08/07 01:28:47;;;;;;;8.10;5.93;;;16.80;99.90;;;;;;5053289;28;20025;-78
2022/08/07 01:31:14;;;;;;;7.88;6.65;;;16.80;99.90;;;;;;5053074;28;20033;-78
2022/08/07 01:33:41;;;;;;;7.90;6.95;;;16.80;99.90;;;;;;5052938;28;20044;-78
2022/08/07 01:36:08;;;;;;;9.65;7.32;;;16.80;99.90;;;;;;5053177;28;20148;-78
2022/08/07 01:38:34;;;;;;;10.30;7.82;;;16.70;99.90;;;;;;5053140;28;20079;-78
2022/08/07 01:41:02;;;;;;;9.43;6.90;;;16.70;99.90;;;;;;5053013;28;20815;-78
2022/08/07 01:43:29;;;;;;;11.05;6.95;;;16.70;99.90;;;;;;5053475;28;20025;-78
2022/08/07 01:45:56;;;;;;;11.23;6.63;;;16.80;99.90;;;;;;5053082;28;20380;-78
2022/08/07 01:48:23;;;;;;;8.38;6.90;;;16.70;99.90;;;;;;5053378;28;20178;-78
2022/08/07 01:51:02;;;;;;;10.38;6.65;;;16.70;99.90;;;;;;5053328;28;20485;-78
2022/08/07 01:53:29;;;;;;;9.60;6.35;;;16.60;99.90;;;;;;5052443;28;20159;-78
2022/08/07 01:55:59;;;;;;;7.72;6.30;;;16.60;99.90;;;;;;5052078;28;20049;-78
2022/08/07 01:58:31;;;;;;;8.48;6.25;;;16.60;99.90;;;;;;5052914;28;20043;-78
2022/08/07 02:01:24;;;;;;;7.68;5.90;;;16.60;99.90;;;;;;5052958;28;20036;-78
2022/08/07 02:03:59;;;;;;;9.48;7.38;;;16.50;99.90;;;;;;5043050;28;20040;-78
2022/08/07 02:06:28;;;;;;;10.05;7.82;;;16.50;99.90;;;;;;5052298;28;20029;-78
2022/08/07 02:08:55;;;;;;;9.55;8.40;;;16.50;99.90;;;;;;5052653;28;20378;-78
2022/08/07 02:11:21;;;;;;;14.02;8.63;;;16.40;99.90;;;;;;5052228;28;20331;-78
2022/08/07 02:13:49;;;;;;;10.00;8.77;;;16.30;99.90;;;;;;5046709;28;20025;-78
2022/08/07 02:16:16;;;;;;;11.07;8.80;;;16.30;99.90;;;;;;5048314;28;20028;-78
2022/08/07 02:18:43;;;;;;;12.00;9.60;;;16.30;99.90;;;;;;5052316;28;20036;-78
2022/08/07 02:21:09;;;;;;;12.40;9.55;;;16.20;99.90;;;;;;5052334;28;20040;-78
2022/08/07 02:23:38;;;;;;;12.38;9.63;;;16.20;99.90;;;;;;5052220;28;20147;-78
2022/08/07 02:26:06;;;;;;;11.80;9.07;;;16.20;99.90;;;;;;5052346;28;20036;-78
2022/08/07 02:28:34;;;;;;;11.68;9.98;;;16.10;99.90;;;;;;5052381;28;20035;-77
2022/08/07 02:31:02;;;;;;;11.05;9.48;;;16.10;99.90;;;;;;5049849;28;20036;-78
2022/08/07 02:33:29;;;;;;;11.85;9.02;;;16.10;99.90;;;;;;5052250;28;20314;-78
2022/08/07 02:35:56;;;;;;;13.85;9.70;;;16.00;99.90;;;;;;5052172;28;20029;-78
2022/08/07 02:38:26;;;;;;;12.40;9.52;;;16.00;99.90;;;;;;5052236;28;20074;-78
2022/08/07 02:40:53;;;;;;;14.02;8.75;;;16.00;99.90;;;;;;5051985;28;20037;-78
2022/08/07 02:43:20;;;;;;;11.40;9.02;;;15.90;99.90;;;;;;5052068;28;20033;-78
2022/08/07 02:45:48;;;;;;;11.32;7.70;;;15.90;99.90;;;;;;5052056;28;20020;-77
2022/08/07 02:48:14;;;;;;;11.73;9.02;;;15.90;99.90;;;;;;5052457;28;20086;-78
2022/08/07 02:50:43;;;;;;;9.73;8.68;;;15.90;99.90;;;;;;5051952;28;20036;-78
2022/08/07 02:53:17;;;;;;;9.98;8.98;;;15.80;99.90;;;;;;5052070;28;20748;-78
2022/08/07 02:55:48;;;;;;;13.13;9.85;;;15.70;99.90;;;;;;5051333;28;20045;-78
2022/08/07 02:58:17;;;;;;;11.90;8.98;;;15.70;99.90;;;;;;5051777;28;20055;-78
2022/08/07 03:00:44;;;;;;;11.40;9.13;;;15.70;99.90;;;;;;5051651;28;20067;-78
2022/08/07 03:03:11;;;;;;;12.07;8.75;;;15.70;99.90;;;;;;5051803;28;20112;-78
2022/08/07 03:05:37;;;;;;;10.13;8.95;;;15.70;99.90;;;;;;5051752;28;20500;-78
2022/08/07 03:08:06;;;;;;;10.20;8.40;;;15.70;99.90;;;;;;5051790;28;20100;-78
2022/08/07 03:10:32;;;;;;;14.70;9.10;;;15.60;99.90;;;;;;5051346;28;20076;-78
2022/08/07 03:12:59;;;;;;;11.68;8.35;;;15.60;99.90;;;;;;5044292;28;20068;-78
2022/08/07 03:15:25;;;;;;;10.60;8.30;;;15.60;99.90;;;;;;5051457;28;20029;-78
2022/08/07 03:17:50;;;;;;;9.93;8.20;;;15.60;99.90;;;;;;5051661;28;20063;-78
2022/08/07 03:20:17;;;;;;;13.35;8.40;;;15.50;99.90;;;;;;5051523;28;20063;-78
2022/08/07 03:22:45;;;;;;;10.85;8.32;;;15.50;99.90;;;;;;5051393;28;20029;-78
2022/08/07 03:25:10;;;;;;;10.88;8.65;;;15.50;99.90;;;;;;5051151;28;20025;-78
2022/08/07 03:27:36;;;;;;;11.05;8.80;;;15.50;99.90;;;;;;5051438;28;20021;-78
2022/08/07 03:30:02;;;;;;;14.85;9.18;;;15.40;99.90;;;;;;5051229;28;20084;-78
2022/08/07 03:32:35;;;;;;;9.13;8.13;;;15.40;99.90;;;;;;5050928;28;20050;-78
2022/08/07 03:35:04;;;;;;;16.98;9.73;;;15.40;99.90;;;;;;5051229;28;20082;-77
2022/08/07 03:37:33;;;;;;;10.82;8.30;;;15.40;99.90;;;;;;5051121;28;20028;-78
2022/08/07 03:39:58;;;;;;;9.30;8.23;;;15.30;99.90;;;;;;5050919;28;20033;-78
2022/08/07 03:42:25;;;;;;;12.45;8.65;;;15.30;99.90;;;;;;5051024;28;20029;-78
2022/08/07 03:44:51;;;;;;;10.45;8.55;;;15.30;99.90;;;;;;5051277;28;20485;-77
2022/08/07 03:47:18;;;;;;;10.57;8.13;;;15.30;99.90;;;;;;5050815;28;20029;-77
2022/08/07 03:49:44;;;;;;;12.68;8.98;;;15.30;99.90;;;;;;5051208;28;20417;-78
2022/08/07 03:52:11;;;;;;;12.82;9.52;;;15.30;99.90;;;;;;5050748;28;20013;-78
2022/08/07 03:54:36;;;;;;;10.55;8.88;;;15.20;99.90;;;;;;5051050;28;20025;-78
2022/08/07 03:57:04;;;;;;;10.88;9.02;;;15.30;99.90;;;;;;5050815;28;20047;-78
2022/08/07 03:59:31;;;;;;;11.90;8.65;;;15.20;99.90;;;;;;5050675;28;20075;-78
2022/08/07 04:01:58;;;;;;;10.50;8.98;;;15.20;99.90;;;;;;5050582;28;20470;-77
2022/08/07 04:04:24;;;;;;;12.40;8.93;;;15.20;99.90;;;;;;5050636;28;20029;-77
2022/08/07 04:06:50;;;;;;;11.48;10.10;;;15.20;99.90;;;;;;5050649;28;20020;-78
2022/08/07 04:09:16;;;;;;;12.95;9.48;;;15.20;99.90;;;;;;5050542;28;20028;-77
2022/08/07 04:11:46;;;;;;;12.48;10.00;;;15.20;99.90;;;;;;5049270;28;20505;-78
2022/08/07 04:14:12;;;;;;;12.13;10.43;;;15.20;99.90;;;;;;5050503;28;20474;-78
2022/08/07 04:16:38;;;;;;;12.57;10.77;;;15.20;99.90;;;;;;5050784;28;20094;-78
2022/08/07 04:19:06;;;;;;;13.35;9.73;;;15.20;99.90;;;;;;5050451;28;20477;-77
2022/08/07 04:21:31;;;;;;;12.27;10.07;;;15.20;99.90;;;;;;5050750;28;20099;-77
2022/08/07 04:23:57;;;;;;;11.43;9.73;;;15.20;99.90;;;;;;5050470;28;20100;-77
2022/08/07 04:26:23;;;;;;;13.45;9.60;;;15.10;99.90;;;;;;5050537;28;20075;-77
2022/08/07 04:28:49;;;;;;;11.40;10.20;;;15.20;99.90;;;;;;5050627;28;20385;-77
2022/08/07 04:31:15;;;;;;;11.20;9.95;;;15.20;99.90;;;;;;5050545;28;20033;-78
2022/08/07 04:33:41;;;;;;;11.10;10.00;;;15.10;99.90;;;;;;5050487;28;20478;-77
2022/08/07 04:36:07;;;;;;;13.63;10.75;;;15.20;99.90;;;;;;5050561;28;20064;-78
2022/08/07 04:38:35;;;;;;;13.15;9.98;;;15.20;99.90;;;;;;5050056;28;20029;-77
2022/08/07 04:41:00;;;;;;;11.48;10.25;;;15.20;99.90;;;;;;5050212;28;20826;-77
2022/08/07 04:43:31;;;;;;;11.00;9.98;;;15.20;99.90;;;;;;5050642;28;20033;-78
2022/08/07 04:46:00;;;;;;;11.90;10.27;;;15.20;99.90;;;;;;5050240;28;20029;-78
2022/08/07 04:48:51;;;;;;;11.60;10.02;;;15.20;99.90;;;;;;5050370;28;20087;-77
2022/08/07 04:51:58;;;;;;;11.23;9.13;;;15.20;99.90;;;;;;5036751;28;20025;-77
2022/08/07 04:54:31;;;;;;;10.20;8.10;;;15.20;99.90;;;;;;5049766;28;20036;-77
2022/08/07 04:57:21;;;;;;;11.45;8.15;;;15.20;99.90;;;;;;5050235;28;20048;-78
2022/08/07 05:00:07;;;;;;;10.38;8.98;;;15.20;99.90;;;;;;5025534;28;20108;-77
2022/08/07 05:03:00;;;;;;;8.40;7.20;;;15.20;99.90;;;;;;5049798;28;20469;-76
2022/08/07 05:05:36;;;;;;;8.07;7.03;;;15.30;99.90;;;;;;5049875;28;20065;-78
2022/08/07 05:08:11;;;;;;;8.82;6.28;;;15.30;99.90;;;;;;5049500;28;20070;-78
2022/08/07 05:10:39;;;;;;;9.73;6.30;;;15.40;99.90;;;;;;5050104;28;20104;-77
2022/08/07 05:13:38;;;;;;;12.18;6.43;;;15.40;99.90;;;;;;5044977;28;20035;-92
2022/08/07 05:16:07;;;;;;;6.43;5.75;;;15.50;99.90;;;;;;5047902;28;20079;-76
2022/08/07 05:18:42;;;;;;;7.10;5.57;;;15.50;99.90;;;;;;5047187;28;20377;-75
2022/08/07 05:21:10;;;;;;;4.70;4.20;;;15.60;99.90;;;;;;5042127;28;20025;-78
2022/08/07 05:23:46;;;;;;;7.82;4.65;;;15.60;99.90;;;;;;5044073;28;20009;-78
2022/08/07 05:26:17;;;;;;;6.10;4.03;;;15.60;99.90;;;;;;5049048;28;20025;-78
2022/08/07 05:28:44;;;;;;;5.47;4.00;;;15.70;99.90;;;;;;5053026;28;20017;-78
2022/08/07 05:31:12;;;;;;;5.60;4.25;;;15.60;99.90;;;;;;5053534;28;20025;-78
2022/08/07 05:33:38;;;;;;;4.10;3.70;;;15.60;99.90;;;;;;5053671;28;20017;-78
2022/08/07 05:36:07;;;;;;;5.28;4.00;;;15.70;99.90;;;;;;5053290;28;20112;-79
2022/08/07 05:38:33;;;;;;;5.43;3.65;;;15.70;99.90;;;;;;5047451;28;20413;-79
2022/08/07 05:41:00;;;;;;;4.32;3.25;;;15.60;99.90;;;;;;5044446;28;20049;-79
2022/08/07 05:43:26;;;;;;;5.22;3.45;;;15.70;99.90;;;;;;5036825;28;20076;-78
2022/08/07 05:45:51;;;;;;;4.68;3.35;;;15.70;99.90;;;;;;5050949;28;20033;-78
2022/08/07 05:48:18;;;;;;;5.75;3.30;;;15.70;99.90;;;;;;5050331;28;20688;-78
2022/08/07 05:50:45;;;;;;;5.63;3.17;;;15.70;99.90;;;;;;5053176;28;20390;-79
2022/08/07 05:53:11;;;;;;;10.80;3.67;;;15.80;99.90;;;;;;5053453;28;20085;-78
2022/08/07 05:55:37;;;;;;;8.32;2.90;;;15.80;99.90;;;;;;5053091;28;20549;-78
2022/08/07 05:58:05;;;;;;;5.47;2.90;;;15.90;99.90;;;;;;5050582;28;20473;-78
2022/08/07 06:00:33;;;;;;;6.90;2.63;;;15.90;99.90;;;;;;5050704;28;20026;-78
2022/08/07 06:03:00;;;;;;;5.10;2.47;;;16.00;99.90;;;;;;5053356;28;20470;-79
2022/08/07 06:05:27;;;;;;;2.78;2.10;;;16.00;99.90;;;;;;5050381;28;20092;-78
2022/08/07 06:07:54;;;;;;;5.50;2.83;;;16.10;99.90;;;;;;5050995;28;20023;-78
2022/08/07 06:10:20;;;;;;;3.67;2.10;;;16.20;99.90;;;;;;5049942;28;20360;-78
2022/08/07 06:12:47;;;;;;;3.55;2.08;;;16.20;99.90;;;;;;5054340;28;20116;-78
2022/08/07 06:15:15;;;;;;;4.07;2.55;;;16.20;99.90;;;;;;5052698;28;20029;-78
2022/08/07 06:17:42;;;;;;;4.68;2.10;;;16.30;99.90;;;;;;5054460;28;20025;-78
2022/08/07 06:20:09;;;;;;;5.72;2.10;;;16.30;99.90;;;;;;5053946;28;20413;-78
2022/08/07 06:22:36;;;;;;;3.38;1.92;;;16.40;99.90;;;;;;5053915;28;20036;-74
2022/08/07 06:25:03;;;;;;;3.58;2.13;;;16.50;99.90;;;;;;5053076;28;20024;-79
2022/08/07 06:27:29;;;;;;;4.25;2.30;;;16.60;99.90;;;;;;5052583;28;20025;-72
2022/08/07 06:29:57;;;;;;;3.97;2.50;;;16.60;99.90;;;;;;5053759;28;20031;-73
2022/08/07 06:32:22;;;;;;;8.52;2.25;;;16.60;99.90;;;;;;5053227;28;20059;-81
2022/08/07 06:34:48;;;;;;;3.50;2.08;;;16.60;99.90;;;;;;5049201;28;20033;-68
2022/08/07 06:37:14;;;;;;;4.63;2.15;;;16.60;99.90;;;;;;5037364;28;20044;-75
2022/08/07 06:39:40;;;;;;;5.43;2.40;;;16.70;99.90;;;;;;5051742;28;20031;-73
2022/08/07 06:42:18;;;;;;;6.85;2.38;;;16.70;99.90;;;;;;5053193;28;20111;-74
2022/08/07 06:44:46;;;;;;;6.65;2.10;;;16.70;99.90;;;;;;5045885;28;20017;-74
2022/08/07 06:47:12;;;;;;;3.35;1.90;;;16.80;99.90;;;;;;5048025;28;20025;-74
2022/08/07 06:49:37;;;;;;;2.40;2.17;;;16.80;99.90;;;;;;5049203;28;20031;-80
2022/08/07 06:52:06;;;;;;;5.05;2.00;;;16.80;99.90;;;;;;5049733;28;20473;-74
2022/08/07 06:54:33;;;;;;;3.58;2.20;;;16.90;99.90;;;;;;5047422;28;20474;-75
2022/08/07 06:56:59;;;;;;;2.78;1.90;;;16.90;99.90;;;;;;5050868;28;20126;-75
2022/08/07 06:59:29;;;;;;;4.35;2.22;;;17.00;99.90;;;;;;5051547;28;20067;-75
2022/08/07 07:01:56;;;;;;;2.95;2.00;;;17.00;99.90;;;;;;5041438;28;20041;-70
2022/08/07 07:04:23;;;;;;;3.40;2.20;;;17.00;99.90;;;;;;5049248;28;20013;-75
2022/08/07 07:06:49;;;;;;;5.05;2.22;;;17.00;99.90;;;;;;5053210;28;20476;-75
2022/08/07 07:09:18;;;;;;;3.58;2.40;;;17.10;99.90;;;;;;5053553;28;20104;-74
2022/08/07 07:12:06;;;;;;;4.30;2.28;;;17.20;99.90;;;;;;5053641;28;20025;-75
2022/08/07 07:14:48;;;;;;;4.75;2.20;;;17.30;99.90;;;;;;5052468;28;20422;-74
2022/08/07 07:17:34;;;;;;;4.60;2.35;;;17.50;99.90;;;;;;5053174;28;20462;-74
2022/08/07 07:20:04;;;;;;;4.10;2.63;;;17.60;99.90;;;;;;5049898;28;20044;-75
2022/08/07 07:22:32;;;;;;;4.28;2.58;;;17.60;99.90;;;;;;5035387;28;20485;-74
2022/08/07 07:24:59;;;;;;;4.28;2.72;;;17.60;99.90;;;;;;5053487;28;20013;-74
2022/08/07 07:27:29;;;;;;;4.63;2.53;;;17.60;99.90;;;;;;5052882;28;20163;-77
2022/08/07 07:29:59;;;;;;;5.55;2.22;;;17.60;99.90;;;;;;5048388;28;20021;-71
2022/08/07 07:32:25;;;;;;;2.90;2.10;;;17.70;99.90;;;;;;5042613;28;20044;-71
2022/08/07 07:34:58;;;;;;;5.03;2.40;;;17.80;99.90;;;;;;5053215;28;20032;-73
2022/08/07 07:37:25;;;;;;;3.58;2.35;;;17.90;99.90;;;;;;5035308;28;20473;-76
2022/08/07 07:39:54;;;;;;;3.83;2.47;;;18.00;99.90;;;;;;5048476;28;20509;-73
2022/08/07 07:42:22;;;;;;;3.35;2.50;;;18.00;99.90;;;;;;5052606;28;20111;-71
2022/08/07 07:44:48;;;;;;;3.85;2.60;;;18.00;99.90;;;;;;5052036;28;20029;-70
2022/08/07 07:47:15;;;;;;;4.32;2.45;;;18.10;99.90;;;;;;5052036;28;20086;-70
2022/08/07 07:49:44;;;;;;;3.20;2.30;;;18.10;99.90;;;;;;5051858;28;20024;-81
2022/08/07 07:52:11;;;;;;;3.72;2.30;;;18.10;99.90;;;;;;5052626;28;20017;-71
2022/08/07 07:54:39;;;;;;;4.85;2.30;;;18.10;99.90;;;;;;5036298;28;20044;-74
2022/08/07 07:57:06;;;;;;;3.50;2.45;;;18.30;99.90;;;;;;5033243;28;20048;-73
2022/08/07 07:59:33;;;;;;;5.10;2.83;;;18.30;99.90;;;;;;5041927;28;20127;-73
2022/08/07 08:02:02;;;;;;;3.95;2.22;;;18.40;99.90;;;;;;5053094;28;20159;-73
2022/08/07 08:04:30;;;;;;;3.90;2.53;;;18.50;99.90;;;;;;5053225;28;20482;-73
2022/08/07 08:06:56;;;;;;;5.03;2.22;;;18.60;99.90;;;;;;5053584;28;20017;-73
2022/08/07 08:09:25;;;;;;;3.40;2.13;;;18.70;99.90;;;;;;5053718;28;20032;-73
2022/08/07 08:11:52;;;;;;;4.45;2.25;;;18.80;99.90;;;;;;5053403;28;20031;-74
2022/08/07 08:14:17;;;;;;;4.03;2.20;;;18.90;99.90;;;;;;5053400;28;20040;-73
2022/08/07 08:16:44;;;;;;;4.85;2.03;;;19.00;99.90;;;;;;5053057;28;20033;-73
2022/08/07 08:19:14;;;;;;;2.58;2.00;;;19.10;99.90;;;;;;5052461;28;20056;-73
2022/08/07 08:27:17;;;;;;;5.38;2.63;;;19.30;99.90;;;;;;5039185;28;20099;-72
2022/08/07 08:29:49;;;;;;;2.85;1.70;;;19.40;99.90;;;;;;5052878;28;20466;-70
2022/08/07 08:32:19;;;;;;;4.93;2.00;;;19.50;99.90;;;;;;5052649;28;20498;-70
2022/08/07 08:34:47;;;;;;;3.08;1.83;;;19.50;99.90;;;;;;5052861;28;20056;-70
2022/08/07 08:37:14;;;;;;;2.55;1.70;;;19.50;99.90;;;;;;5052375;28;20032;-70
2022/08/07 08:39:43;;;;;;;5.95;1.80;;;19.50;99.90;;;;;;5052420;28;20032;-73
2022/08/07 08:42:50;;;;;;;2.83;1.80;;;19.50;99.90;;;;;;5052722;28;20033;-76
2022/08/07 08:45:40;;;;;;;4.40;1.80;;;19.60;99.90;;;;;;5010306;28;20029;-81
2022/08/07 08:48:19;;;;;;;2.90;1.70;;;19.70;99.90;;;;;;5051349;28;20024;-82
2022/08/07 08:51:00;;;;;;;2.78;1.75;;;19.80;99.90;;;;;;5049993;28;20412;-81
2022/08/07 08:53:41;;;;;;;5.70;1.77;;;19.80;99.90;;;;;;5051264;28;20057;-82
2022/08/07 08:56:31;;;;;;;3.03;1.83;;;19.80;99.90;;;;;;5038512;28;20051;-82
2022/08/07 08:59:46;;;;;;;4.03;1.70;;;19.80;99.90;;;;;;5051614;28;20104;-82
2022/08/07 09:02:29;;;;;;;3.47;1.70;;;19.90;99.90;;;;;;4953906;28;20042;-81
2022/08/07 09:05:22;;;;;;;2.60;1.70;;;19.90;99.90;;;;;;4955291;29;20039;-81
2022/08/07 09:08:09;;;;;;;4.38;1.90;;;20.00;99.90;;;;;;5039198;28;20462;-81
2022/08/07 09:11:12;;;;;;;6.43;2.03;;;20.10;99.90;;;;;;5049560;28;20033;-81
2022/08/07 09:14:05;;;;;;;4.78;2.10;;;20.20;99.90;;;;;;5046604;28;20446;-81
2022/08/07 09:16:46;;;;;;;3.35;1.70;;;20.20;99.90;;;;;;5042326;28;20075;-81
2022/08/07 09:19:20;;;;;;;4.78;2.20;;;20.20;99.90;;;;;;5055661;28;20414;-82
2022/08/07 09:21:58;;;;;;;3.03;1.80;;;20.30;99.90;;;;;;5055768;28;20431;-82
2022/08/07 09:24:44;;;;;;;3.00;1.80;;;20.50;99.90;;;;;;5055730;28;20035;-82
2022/08/07 09:27:39;;;;;;;4.60;1.90;;;20.70;99.90;;;;;;5037780;28;20089;-81
2022/08/07 09:30:07;;;;;;;4.10;1.85;;;21.00;99.90;;;;;;5055619;28;20028;-81
2022/08/07 09:32:55;;;;;;;2.45;1.83;;;21.20;99.90;;;;;;5055827;28;20029;-83
2022/08/07 09:36:01;;;;;;;5.80;2.10;;;21.40;99.90;;;;;;5056152;28;20373;-83
2022/08/07 09:38:48;;;;;;;3.92;1.85;;;21.70;99.90;;;;;;5056080;28;20481;-83
2022/08/07 09:41:40;;;;;;;2.88;1.85;;;21.80;99.90;;;;;;5056088;28;20150;-84
2022/08/07 09:44:18;;;;;;;2.45;1.58;;;22.00;99.90;;;;;;5056232;28;20022;-83
2022/08/07 09:47:12;;;;;;;5.35;3.30;;;22.10;99.90;;;;;;5055642;28;20028;-83
2022/08/07 09:49:57;;;;;;;3.30;2.15;;;22.20;99.90;;;;;;5049160;28;20104;-84
2022/08/07 09:52:47;;;;;;;4.30;1.70;;;22.20;99.90;;;;;;5050633;28;20037;-84
2022/08/07 09:55:24;;;;;;;3.17;1.90;;;22.20;99.90;;;;;;5037473;28;20041;-84
2022/08/07 09:58:02;;;;;;;2.60;1.50;;;22.30;99.90;;;;;;5055572;28;20382;-83
2022/08/07 10:00:46;;;;;;;4.13;2.10;;;22.50;99.90;;;;;;5055553;28;20029;-84
2022/08/07 10:03:35;;;;;;;3.63;1.70;;;22.70;99.90;;;;;;5024336;28;20120;-83
2022/08/07 10:06:25;;;;;;;4.15;2.10;;;22.80;99.90;;;;;;5055451;28;20060;-83
2022/08/07 10:09:12;;;;;;;4.15;2.03;;;22.90;99.90;;;;;;5055497;28;20079;-84
2022/08/07 10:12:09;;;;;;;5.75;1.70;;;22.90;99.90;;;;;;5055521;28;20021;-84
2022/08/07 10:14:49;;;;;;;2.35;1.55;;;22.90;99.90;;;;;;5055207;28;20434;-83
2022/08/07 10:17:48;;;;;;;3.50;1.80;;;22.80;99.90;;;;;;5055646;28;20028;-84
2022/08/07 10:20:51;;;;;;;3.10;1.80;;;22.90;99.90;;;;;;5036726;28;20100;-83
2022/08/07 10:23:35;;;;;;;3.10;1.35;;;23.10;99.90;;;;;;5055657;28;20132;-84
2022/08/07 10:26:10;;;;;;;2.15;1.70;;;23.20;99.90;;;;;;5055044;28;20373;-84
2022/08/07 10:29:18;;;;;;;1.90;1.48;;;22.90;99.90;;;;;;5055052;28;20021;-84
2022/08/07 10:32:20;;;;;;;5.20;2.05;;;22.90;99.90;;;;;;5054962;28;20036;-84
2022/08/07 10:34:52;;;;;;;3.50;1.77;;;22.90;99.90;;;;;;5055349;28;20408;-84
2022/08/07 10:37:20;;;;;;;4.07;1.45;;;23.10;99.90;;;;;;5055577;28;20370;-84
2022/08/07 10:39:52;;;;;;;4.97;1.80;;;23.30;99.90;;;;;;5054735;28;20035;-84
2022/08/07 10:42:26;;;;;;;3.03;1.80;;;23.40;99.90;;;;;;5054752;28;20044;-84
2022/08/07 10:45:01;;;;;;;3.78;2.20;;;23.40;99.90;;;;;;5055184;28;20029;-84
2022/08/07 10:47:41;;;;;;;2.28;1.40;;;23.50;99.90;;;;;;5054783;28;20025;-84
2022/08/07 10:50:21;;;;;;;3.58;1.90;;;23.50;99.90;;;;;;5054390;28;20017;-84
2022/08/07 10:53:05;;;;;;;4.78;1.70;;;23.70;99.90;;;;;;5036670;28;20021;-84
2022/08/07 10:55:50;;;;;;;2.78;1.50;;;24.00;99.90;;;;;;5054702;28;20045;-84
2022/08/07 10:58:33;;;;;;;;;;;24.10;99.90;;;;;;5054823;28;20180;-83
2022/08/07 11:01:20;;;;;;;5.13;1.58;;;24.40;99.90;;;;;;5040676;28;20282;-84
2022/08/07 11:03:55;;;;;;;4.50;2.22;;;24.50;99.90;;;;;;5054397;28;20033;-84
2022/08/07 11:06:49;;;;;;;3.03;1.77;;;24.50;99.90;;;;;;5054822;28;20112;-83
2022/08/07 11:09:30;;;;;;;4.15;2.58;;;24.70;99.90;;;;;;5044445;28;20045;-84
2022/08/07 11:12:03;;;;;;;2.78;1.70;;;24.80;99.90;;;;;;5054071;28;20100;-84
2022/08/07 11:14:46;;;;;;;2.78;1.90;;;24.60;99.90;;;;;;5054321;28;20017;-84
2022/08/07 11:17:21;;;;;;;4.38;1.50;;;24.40;99.90;;;;;;5054248;28;20021;-83
2022/08/07 11:20:07;;;;;;;2.85;1.50;;;24.10;99.90;;;;;;5034414;28;20076;-84
2022/08/07 11:22:54;;;;;;;3.22;1.80;;;24.10;99.90;;;;;;5036182;28;20029;-84
2022/08/07 11:25:45;;;;;;;2.90;1.60;;;24.30;99.90;;;;;;5052886;28;20092;-83
2022/08/07 11:28:18;;;;;;;2.67;1.60;;;24.40;99.90;;;;;;5054144;28;20025;-83
2022/08/07 11:30:55;;;;;;;2.35;1.85;;;24.40;99.90;;;;;;5054201;28;20100;-84
2022/08/07 11:33:30;;;;;;;4.90;1.88;;;24.40;99.90;;;;;;5053889;28;20021;-83
2022/08/07 11:36:17;;;;;;;2.95;1.73;;;24.40;99.90;;;;;;5053949;28;20108;-84
2022/08/07 11:38:54;;;;;;;3.80;1.90;;;24.40;99.90;;;;;;5053975;28;20534;-84
2022/08/07 11:41:22;;;;;;;6.22;2.13;;;24.40;99.90;;;;;;5053866;28;20444;-84
2022/08/07 11:44:17;;;;;;;4.30;1.98;;;24.60;99.90;;;;;;5053627;28;20351;-84
2022/08/07 11:46:45;;;;;;;2.10;1.67;;;24.70;99.90;;;;;;5054277;28;20060;-84
2022/08/07 11:49:31;;;;;;;4.93;1.92;;;25.00;99.90;;;;;;5053399;28;20025;-84
2022/08/07 11:52:18;;;;;;;3.13;1.70;;;25.10;99.90;;;;;;5035969;28;20090;-84
2022/08/07 11:54:57;;;;;;;4.03;1.90;;;25.10;99.90;;;;;;5052759;28;20099;-84
2022/08/07 11:57:51;;;;;;;2.88;1.80;;;25.40;99.90;;;;;;5053454;28;20025;-84
2022/08/07 12:00:28;;;;;;;3.30;1.88;;;25.60;99.90;;;;;;5053454;28;20386;-84
2022/08/07 12:03:11;;;;;;;4.18;1.77;;;25.80;99.90;;;;;;5053091;28;20033;-84
2022/08/07 12:06:14;;;;;;;3.07;2.03;;;26.00;99.90;;;;;;5035460;28;20090;-84
2022/08/07 12:08:59;;;;;;;3.45;1.75;;;26.40;99.90;;;;;;5053533;28;20025;-84
2022/08/07 12:11:45;;;;;;;2.78;1.60;;;26.50;99.90;;;;;;5053200;28;20036;-84
2022/08/07 12:14:17;;;;;;;4.85;2.08;;;26.80;99.90;;;;;;5053044;28;20098;-84
2022/08/07 12:16:52;;;;;;;6.18;1.80;;;26.80;99.90;;;;;;5052961;28;20017;-84
2022/08/07 12:19:43;;;;;;;3.95;1.52;;;27.20;99.90;;;;;;5052838;28;20032;-84
2022/08/07 12:22:16;;;;;;;1.92;1.60;;;27.40;99.90;;;;;;5052290;28;20382;-84
2022/08/07 12:27:58;;;;;;;2.58;1.70;;;27.30;99.90;;;;;;5029142;28;20028;-84
2022/08/07 12:30:30;;;;;;;2.33;1.80;;;27.30;99.90;;;;;;5050516;28;20096;-84
2022/08/07 12:33:17;;;;;;;2.75;1.70;;;27.40;99.90;;;;;;5033401;28;20018;-84
2022/08/07 12:35:45;;;;;;;3.38;1.70;;;27.50;99.90;;;;;;5051711;28;20017;-84
2022/08/07 12:38:13;;;;;;;2.35;1.70;;;27.40;99.90;;;;;;5057392;28;20362;-84
2022/08/07 12:40:41;;;;;;;3.97;1.67;;;27.70;99.90;;;;;;5056948;28;20032;-84
2022/08/07 12:43:08;;;;;;;11.38;2.08;;;27.50;99.90;;;;;;5056752;28;20029;-84
2022/08/07 12:46:00;;;;;;;2.33;1.70;;;27.50;99.90;;;;;;5039543;28;20374;-84
2022/08/07 12:48:51;;;;;;;3.78;1.80;;;27.70;99.20;;;;;;5056724;28;20497;-84
2022/08/07 12:51:25;;;;;;;1.95;1.40;;;27.60;99.50;;;;;;5042958;28;20032;-83
2022/08/07 12:53:59;;;;;;;2.50;1.67;;;27.50;99.60;;;;;;5055069;28;20470;-80
2022/08/07 12:56:29;;;;;;;;;;;27.60;99.90;;;;;;5040718;28;20037;-79
2022/08/07 12:58:57;;;;;;;2.67;1.55;;;27.70;99.80;;;;;;5053949;28;19908;-78
2022/08/07 13:01:25;;;;;;;2.90;1.40;;;27.80;99.20;;;;;;5052891;28;20017;-79
2022/08/07 13:04:03;;;;;;;2.33;1.42;;;27.80;97.90;;;;;;5055849;28;20021;-77
2022/08/07 13:06:28;;;;;;;5.07;1.83;;;27.80;98.30;;;;;;5057121;28;20025;-73
2022/08/07 13:09:11;;;;;;;2.97;1.77;;;27.50;98.90;;;;;;5056308;28;20102;-73
2022/08/07 13:12:13;;;;;;;3.05;1.52;;;27.50;99.00;;;;;;5056320;28;20482;-76
2022/08/07 13:15:17;;;;;;;4.65;1.83;;;27.30;98.00;;;;;;5055718;28;20021;-70
2022/08/07 13:18:17;;;;;;;2.30;1.60;;;27.10;98.10;;;;;;5056196;28;20025;-70
2022/08/07 13:20:49;;;;;;;4.38;1.90;;;26.90;97.80;;;;;;5056274;28;20063;-69
2022/08/07 13:23:49;;;;;;;2.58;1.77;;;26.60;98.70;;;;;;5055758;28;20036;-69